Terminal Aerodrome Forecast
Issued by NWS

Home | Current Version | Previous Version | Text Only | Print | Product List | Glossary On
Versions: 1 2 3 4 5 6 7 8 9 10 11 12 13 14 15 16 17 18 19 20 21 22 23 24 25 26 27 28 29 30 31 32 33 34 35 36 37 38 39 40 41 42 43 44 45 46 47 48 49 50
869
FTUS43 KDDC 242206 AAC
TAFHYS
TAF AMD
KHYS 242206Z 2422/2518 13017G25KT P6SM SKC
     FM242300 14014KT P6SM VCTS BKN110CB
     FM250300 17015G23KT P6SM SCT200
     FM250900 17013KT P6SM SCT060 WS020/19040KT=

USA.gov is the U.S. government's official web portal to all federal, state and local government web resources and services.